createdAt,value
2019-05-30T00:02:00.793Z,13.08
2019-05-30T00:04:30.231Z,13.28
2019-05-30T00:07:00.538Z,13.28
2019-05-30T00:09:30.127Z,12.65
2019-05-30T00:12:00.678Z,13.90
2019-05-30T00:14:30.290Z,13.32
2019-05-30T00:17:00.835Z,13.45
2019-05-30T00:19:33.638Z,10.30
2019-05-30T00:22:20.905Z,11.03
2019-05-30T00:24:50.281Z,10.88
2019-05-30T00:27:19.837Z,15.03
2019-05-30T00:29:49.295Z,10.48
2019-05-30T00:32:18.725Z,45.75
2019-05-30T00:34:48.179Z,13.83
2019-05-30T00:37:17.617Z,14.28
2019-05-30T00:39:47.069Z,12.88
2019-05-30T00:42:16.509Z,13.13
2019-05-30T00:44:45.880Z,15.10
2019-05-30T00:47:16.320Z,13.58
2019-05-30T00:49:45.694Z,13.40
2019-05-30T00:52:15.064Z,11.20
2019-05-30T00:54:44.424Z,10.30
2019-05-30T00:57:13.807Z,12.28
2019-05-30T00:59:43.161Z,10.90
2019-05-30T01:02:12.675Z,14.28
2019-05-30T01:04:42.005Z,16.42
2019-05-30T01:07:11.363Z,19.02
2019-05-30T01:09:40.734Z,11.73
2019-05-30T01:12:10.121Z,14.38
2019-05-30T01:14:39.476Z,11.75
2019-05-30T01:17:08.848Z,11.80
2019-05-30T01:19:38.222Z,13.65
2019-05-30T01:22:07.699Z,20.43
2019-05-30T01:24:37.137Z,15.13
2019-05-30T01:27:07.633Z,11.18
2019-05-30T01:29:37.173Z,12.33
2019-05-30T01:32:24.540Z,14.18
2019-05-30T01:34:53.913Z,13.30
2019-05-30T01:37:23.283Z,12.58
2019-05-30T01:39:52.661Z,13.05
2019-05-30T01:42:22.086Z,10.00
2019-05-30T01:44:51.462Z,15.28
2019-05-30T01:47:20.840Z,8.75
2019-05-30T01:49:50.188Z,9.00
2019-05-30T01:52:19.558Z,12.25
2019-05-30T01:54:48.932Z,10.82
2019-05-30T01:57:18.340Z,10.88
2019-05-30T01:59:47.705Z,14.07
2019-05-30T02:02:17.108Z,8.93
2019-05-30T02:04:46.480Z,11.60
2019-05-30T02:07:16.019Z,10.82
2019-05-30T02:09:45.446Z,10.65
2019-05-30T02:12:14.792Z,9.85
2019-05-30T02:14:44.199Z,11.45
2019-05-30T02:17:13.579Z,9.95
2019-05-30T02:19:42.929Z,11.65
2019-05-30T02:22:12.356Z,9.30
2019-05-30T02:24:41.736Z,10.15
2019-05-30T02:27:11.181Z,11.80
2019-05-30T02:29:40.523Z,8.35
2019-05-30T02:32:11.117Z,9.40
2019-05-30T02:34:40.679Z,8.45
2019-05-30T02:37:10.915Z,10.58
2019-05-30T02:39:41.104Z,9.30
2019-05-30T02:42:11.666Z,8.20
2019-05-30T02:44:41.241Z,12.03
2019-05-30T02:47:11.574Z,9.40
2019-05-30T02:52:10.836Z,14.15
2019-05-30T02:54:40.861Z,10.45
2019-05-30T02:57:12.189Z,7.33
2019-05-30T02:59:41.292Z,9.63
2019-05-30T03:02:15.213Z,12.23
2019-05-30T03:04:41.643Z,6.72
2019-05-30T03:07:12.892Z,11.55
2019-05-30T03:09:42.258Z,13.68
2019-05-30T03:12:13.478Z,8.75
2019-05-30T03:14:42.720Z,10.53
2019-05-30T03:17:14.373Z,10.03
2019-05-30T03:19:43.126Z,10.48
2019-05-30T03:22:14.010Z,16.48
2019-05-30T03:24:43.622Z,10.38
2019-05-30T03:27:14.126Z,8.93
2019-05-30T03:29:43.766Z,16.40
2019-05-30T03:32:48.933Z,8.38
2019-05-30T03:34:44.181Z,7.05
2019-05-30T03:37:22.593Z,11.10
2019-05-30T03:39:44.577Z,13.03
2019-05-30T03:42:15.897Z,8.03
2019-05-30T03:44:46.049Z,11.40
2019-05-30T03:47:15.724Z,12.35
2019-05-30T03:49:45.242Z,11.15
2019-05-30T03:52:17.094Z,8.70
2019-05-30T03:54:46.293Z,7.42
2019-05-30T03:57:21.948Z,7.45
2019-05-30T04:00:00.275Z,12.98
2019-05-30T04:02:55.187Z,9.40
2019-05-30T04:05:16.315Z,10.08
2019-05-30T04:07:49.075Z,10.90
2019-05-30T04:10:20.203Z,9.75
2019-05-30T04:13:15.289Z,12.85
2019-05-30T04:15:43.993Z,13.85
2019-05-30T04:18:15.806Z,8.98
2019-05-30T04:20:44.353Z,9.73
2019-05-30T04:23:14.816Z,10.32
2019-05-30T04:25:44.798Z,11.43
2019-05-30T04:28:14.569Z,8.45
2019-05-30T04:30:45.165Z,13.95
2019-05-30T04:33:26.435Z,11.30
2019-05-30T04:35:45.516Z,8.58
2019-05-30T04:38:14.888Z,14.10
2019-05-30T04:40:44.243Z,10.98
2019-05-30T04:43:15.308Z,7.58
2019-05-30T04:45:44.911Z,9.30
2019-05-30T04:48:15.878Z,11.85
2019-05-30T04:50:45.454Z,8.55
2019-05-30T04:53:16.374Z,8.48
2019-05-30T04:55:46.883Z,11.40
2019-05-30T04:58:17.874Z,12.75
2019-05-30T05:00:47.362Z,12.60
2019-05-30T05:03:37.029Z,11.78
2019-05-30T05:05:48.800Z,14.35
2019-05-30T05:08:19.835Z,15.03
2019-05-30T05:10:49.421Z,9.00
2019-05-30T05:13:20.326Z,12.30
2019-05-30T05:15:49.885Z,10.90
2019-05-30T05:18:21.095Z,9.88
2019-05-30T05:20:50.561Z,14.98
2019-05-30T05:23:21.243Z,12.10
2019-05-30T05:26:00.371Z,8.20
2019-05-30T05:28:22.009Z,10.43
2019-05-30T05:30:51.524Z,10.72
2019-05-30T05:33:20.916Z,11.80
2019-05-30T05:35:50.291Z,9.30
2019-05-30T05:38:20.182Z,8.00
2019-05-30T05:40:49.687Z,9.15
2019-05-30T05:43:20.065Z,9.65
2019-05-30T05:45:49.801Z,10.53
2019-05-30T05:48:20.380Z,11.63
2019-05-30T05:50:49.860Z,7.45
2019-05-30T05:53:19.205Z,6.22
2019-05-30T05:55:48.583Z,7.85
2019-05-30T05:58:18.998Z,9.50
2019-05-30T06:03:18.794Z,9.83
2019-05-30T06:05:53.112Z,10.95
2019-05-30T06:08:19.504Z,10.68
2019-05-30T06:10:49.034Z,8.83
2019-05-30T06:13:18.649Z,6.62
2019-05-30T06:15:48.151Z,9.83
2019-05-30T06:18:18.081Z,12.15
2019-05-30T06:20:47.601Z,8.93
2019-05-30T06:23:17.341Z,8.98
2019-05-30T06:25:48.821Z,9.08
2019-05-30T06:28:20.224Z,4.90
2019-05-30T06:30:49.935Z,6.67
2019-05-30T06:33:20.677Z,10.72
2019-05-30T06:35:50.059Z,5.70
2019-05-30T06:38:19.751Z,9.60
2019-05-30T06:40:49.615Z,8.27
2019-05-30T06:43:19.890Z,8.78
2019-05-30T06:45:49.464Z,6.97
2019-05-30T06:48:20.550Z,11.63
2019-05-30T06:50:50.213Z,8.58
2019-05-30T06:53:20.918Z,12.47
2019-05-30T06:55:50.746Z,8.40
2019-05-30T06:58:36.197Z,8.23
2019-05-30T07:00:51.364Z,4.87
2019-05-30T07:03:22.081Z,5.20
2019-05-30T07:05:52.288Z,10.68
2019-05-30T07:08:22.650Z,9.58
2019-05-30T07:10:52.206Z,9.23
2019-05-30T07:13:23.112Z,9.85
2019-05-30T07:15:52.767Z,8.75
2019-05-30T07:18:23.344Z,9.25
2019-05-30T07:20:52.867Z,6.35
2019-05-30T07:23:23.636Z,6.70
2019-05-30T07:25:53.630Z,7.25
2019-05-30T07:28:23.800Z,7.95
2019-05-30T07:30:54.400Z,4.55
2019-05-30T07:33:23.998Z,4.87
2019-05-30T07:35:53.529Z,10.93
2019-05-30T07:38:24.226Z,11.18
2019-05-30T07:40:53.850Z,6.33
2019-05-30T07:43:25.382Z,6.08
2019-05-30T07:45:58.218Z,5.37
2019-05-30T07:48:26.032Z,7.40
2019-05-30T07:50:55.656Z,7.15
2019-05-30T07:53:25.016Z,3.37
2019-05-30T07:55:54.385Z,5.03
2019-05-30T07:58:24.004Z,8.50
2019-05-30T08:00:53.450Z,6.73
2019-05-30T08:03:22.820Z,5.22
2019-05-30T08:05:52.216Z,4.80
2019-05-30T08:08:21.581Z,5.28
2019-05-30T08:10:50.924Z,4.55
2019-05-30T08:13:20.305Z,6.22
2019-05-30T08:15:49.712Z,4.83
2019-05-30T08:18:19.137Z,2.83
2019-05-30T08:20:49.874Z,3.05
2019-05-30T08:23:19.230Z,6.20
2019-05-30T08:25:48.604Z,6.53
2019-05-30T08:28:18.059Z,5.70
2019-05-30T08:30:49.152Z,5.55
2019-05-30T08:33:21.380Z,5.65
2019-05-30T08:35:50.458Z,5.55
2019-05-30T08:40:48.652Z,8.88
2019-05-30T08:43:18.192Z,4.87
2019-05-30T08:45:47.626Z,5.25
2019-05-30T08:48:17.022Z,5.70
2019-05-30T08:50:46.525Z,6.97
2019-05-30T08:53:16.217Z,5.83
2019-05-30T08:55:45.595Z,5.20
2019-05-30T08:58:14.950Z,8.93
2019-05-30T09:00:44.323Z,6.12
2019-05-30T09:03:13.697Z,5.35
2019-05-30T09:05:59.226Z,6.90
2019-05-30T09:08:14.639Z,5.25
2019-05-30T09:10:56.517Z,6.20
2019-05-30T09:13:25.902Z,5.95
2019-05-30T09:15:55.283Z,9.43
2019-05-30T09:18:24.640Z,6.45
2019-05-30T09:20:54.530Z,4.42
2019-05-30T09:23:23.997Z,4.03
2019-05-30T09:25:53.546Z,4.05
2019-05-30T09:28:22.913Z,7.97
2019-05-30T09:33:22.181Z,5.53
2019-05-30T09:35:51.574Z,8.08
2019-05-30T09:38:41.724Z,6.80
2019-05-30T09:41:11.214Z,4.35
2019-05-30T09:43:50.958Z,5.45
2019-05-30T09:46:22.813Z,5.97
2019-05-30T09:48:52.224Z,6.47
2019-05-30T09:51:21.672Z,5.72
2019-05-30T09:53:51.025Z,7.90
2019-05-30T09:56:30.312Z,7.17
2019-05-30T09:58:59.857Z,4.92
2019-05-30T10:01:29.210Z,8.38
2019-05-30T10:03:58.724Z,4.80
2019-05-30T10:06:29.949Z,7.75
2019-05-30T10:08:59.194Z,6.35
2019-05-30T10:11:28.775Z,6.65
2019-05-30T10:13:58.153Z,5.07
2019-05-30T10:16:27.531Z,8.18
2019-05-30T10:18:57.181Z,7.78
2019-05-30T10:21:26.665Z,5.47
2019-05-30T10:23:57.473Z,4.15
2019-05-30T10:26:27.026Z,2.67
2019-05-30T10:28:57.370Z,5.10
2019-05-30T10:33:56.843Z,5.53
2019-05-30T10:36:26.364Z,6.35
2019-05-30T10:38:56.022Z,6.55
2019-05-30T10:41:25.504Z,3.75
2019-05-30T10:43:54.885Z,6.33
2019-05-30T10:46:24.244Z,3.83
2019-05-30T10:48:54.690Z,7.10
2019-05-30T10:51:24.352Z,3.60
2019-05-30T10:53:54.107Z,3.87
2019-05-30T10:56:23.581Z,7.20
2019-05-30T10:58:55.028Z,4.75
2019-05-30T11:01:24.743Z,8.08
2019-05-30T11:03:55.485Z,4.63
2019-05-30T11:06:34.628Z,4.22
2019-05-30T11:09:04.841Z,6.87
2019-05-30T11:11:34.279Z,4.95
2019-05-30T11:14:03.780Z,4.20
2019-05-30T11:16:33.184Z,4.57
2019-05-30T11:19:07.241Z,9.45
2019-05-30T11:21:33.808Z,4.62
2019-05-30T11:24:03.228Z,5.42
2019-05-30T11:26:32.613Z,5.75
2019-05-30T11:29:02.034Z,3.00
2019-05-30T11:31:31.382Z,6.58
2019-05-30T11:34:00.772Z,5.20
2019-05-30T11:36:30.462Z,7.33
2019-05-30T11:38:59.953Z,7.22
2019-05-30T11:41:29.328Z,8.13
2019-05-30T11:43:59.769Z,6.67
2019-05-30T11:46:29.861Z,5.72
2019-05-30T11:49:00.477Z,6.08
2019-05-30T11:51:29.905Z,6.37
2019-05-30T11:54:00.838Z,7.65
2019-05-30T11:56:30.283Z,6.65
2019-05-30T11:59:00.165Z,5.08
2019-05-30T12:01:29.726Z,6.47
2019-05-30T12:03:59.073Z,5.78
2019-05-30T12:06:28.449Z,6.72
2019-05-30T12:08:58.867Z,5.72
2019-05-30T12:11:28.387Z,7.58
2019-05-30T12:13:57.754Z,5.60
2019-05-30T12:16:27.122Z,4.95
2019-05-30T12:18:57.871Z,5.67
2019-05-30T12:21:29.830Z,5.05
2019-05-30T12:23:58.647Z,5.85
2019-05-30T12:26:27.990Z,7.35
2019-05-30T12:28:58.069Z,7.22
2019-05-30T12:31:27.508Z,5.30
2019-05-30T12:33:56.886Z,6.10
2019-05-30T12:36:26.257Z,6.62
2019-05-30T12:41:34.613Z,4.85
2019-05-30T12:44:05.319Z,6.85
2019-05-30T12:46:35.028Z,5.80
2019-05-30T12:49:04.750Z,6.12
2019-05-30T12:51:34.106Z,4.53
2019-05-30T12:54:04.738Z,3.83
2019-05-30T12:56:34.526Z,5.17
2019-05-30T12:59:04.072Z,4.35
2019-05-30T13:01:34.525Z,6.35
2019-05-30T13:04:03.873Z,5.72
2019-05-30T13:06:33.260Z,4.67
2019-05-30T13:09:03.356Z,7.45
2019-05-30T13:11:33.326Z,7.28
2019-05-30T13:14:02.795Z,8.80
2019-05-30T13:16:32.258Z,5.83
2019-05-30T13:19:02.264Z,5.42
2019-05-30T13:21:31.806Z,5.12
2019-05-30T13:24:01.899Z,5.53
2019-05-30T13:26:31.472Z,5.87
2019-05-30T13:29:02.182Z,8.78
2019-05-30T13:31:32.454Z,6.28
2019-05-30T13:34:02.902Z,6.65
2019-05-30T13:36:32.554Z,5.12
2019-05-30T13:39:03.142Z,5.08
2019-05-30T13:41:33.079Z,6.12
2019-05-30T13:44:04.500Z,6.17
2019-05-30T13:46:33.550Z,7.22
2019-05-30T13:49:03.061Z,6.60
2019-05-30T13:51:32.497Z,8.03
2019-05-30T13:54:03.002Z,8.58
2019-05-30T13:56:32.727Z,6.95
2019-05-30T13:59:02.342Z,10.32
2019-05-30T14:01:31.877Z,7.50
2019-05-30T14:04:03.066Z,7.73
2019-05-30T14:06:32.644Z,6.75
2019-05-30T14:09:02.399Z,6.10
2019-05-30T14:11:33.484Z,5.15
2019-05-30T14:14:04.780Z,5.37
2019-05-30T14:16:36.263Z,9.05
2019-05-30T14:19:11.058Z,4.45
2019-05-30T14:21:40.090Z,6.83
2019-05-30T14:24:20.822Z,6.17
2019-05-30T14:26:50.574Z,8.58
2019-05-30T14:29:19.995Z,7.80
2019-05-30T14:31:49.334Z,5.05
2019-05-30T14:34:18.777Z,6.83
2019-05-30T14:36:48.153Z,5.75
2019-05-30T14:39:17.506Z,5.75
2019-05-30T14:41:50.727Z,5.47
2019-05-30T14:44:20.198Z,5.80
2019-05-30T14:49:20.466Z,8.13
2019-05-30T14:51:49.855Z,7.33
2019-05-30T14:54:19.341Z,9.70
2019-05-30T14:56:48.726Z,6.20
2019-05-30T14:59:19.212Z,6.05
2019-05-30T15:01:48.621Z,7.13
2019-05-30T15:04:17.994Z,6.90
2019-05-30T15:06:47.428Z,7.55
2019-05-30T15:09:25.573Z,6.22
2019-05-30T15:11:47.843Z,7.62
2019-05-30T15:14:17.214Z,6.78
2019-05-30T15:16:46.578Z,6.12
2019-05-30T15:19:28.206Z,7.92
2019-05-30T15:21:57.590Z,5.08
2019-05-30T15:24:27.038Z,5.03
2019-05-30T15:26:56.410Z,5.60
2019-05-30T15:29:25.763Z,6.95
2019-05-30T15:31:55.148Z,6.37
2019-05-30T15:34:24.522Z,7.25
2019-05-30T15:36:53.899Z,5.40
2019-05-30T15:39:32.391Z,10.15
2019-05-30T15:41:54.318Z,5.67
2019-05-30T15:44:23.702Z,7.78
2019-05-30T15:46:53.097Z,6.92
2019-05-30T15:49:22.472Z,7.72
2019-05-30T15:51:51.868Z,4.83
2019-05-30T15:54:21.214Z,5.62
2019-05-30T15:56:50.595Z,5.10
2019-05-30T15:59:19.969Z,5.55
2019-05-30T16:01:49.328Z,5.97
2019-05-30T16:04:18.712Z,5.92
2019-05-30T16:06:48.118Z,6.15
2019-05-30T16:11:48.256Z,7.10
2019-05-30T16:14:17.639Z,6.72
2019-05-30T16:16:47.010Z,8.13
2019-05-30T16:19:22.018Z,7.00
2019-05-30T16:21:49.487Z,5.67
2019-05-30T16:24:18.566Z,6.87
2019-05-30T16:26:47.995Z,7.00
2019-05-30T16:29:17.714Z,12.75
2019-05-30T16:31:47.227Z,7.20
2019-05-30T16:34:16.610Z,8.23
2019-05-30T16:36:45.993Z,6.83
2019-05-30T16:39:16.019Z,6.35
2019-05-30T16:41:45.449Z,6.25
2019-05-30T16:44:14.785Z,5.08
2019-05-30T16:46:44.161Z,6.37
2019-05-30T16:49:14.358Z,3.92
2019-05-30T16:51:44.871Z,8.78
2019-05-30T16:54:15.145Z,4.60
2019-05-30T16:57:04.043Z,2.98
2019-05-30T16:59:33.700Z,3.55
2019-05-30T17:02:03.068Z,5.28
2019-05-30T17:04:32.438Z,6.10
2019-05-30T17:07:01.841Z,6.37
2019-05-30T17:09:34.876Z,7.70
2019-05-30T17:12:05.111Z,13.62
2019-05-30T17:14:35.475Z,13.93
2019-05-30T17:19:35.377Z,9.93
2019-05-30T17:22:05.531Z,8.58
2019-05-30T17:24:34.880Z,8.73
2019-05-30T17:27:04.521Z,6.25
2019-05-30T17:29:34.093Z,9.93
2019-05-30T17:32:03.451Z,7.97
2019-05-30T17:34:32.902Z,7.50
2019-05-30T17:37:02.300Z,6.55
2019-05-30T17:39:31.713Z,8.00
2019-05-30T17:42:02.252Z,3.67
2019-05-30T17:44:32.053Z,10.25
2019-05-30T17:47:01.740Z,7.08
2019-05-30T17:49:31.444Z,8.68
2019-05-30T17:52:03.598Z,7.23
2019-05-30T17:54:32.225Z,4.78
2019-05-30T17:57:02.329Z,9.73
2019-05-30T17:59:31.863Z,16.65
2019-05-30T18:02:01.233Z,8.77
2019-05-30T18:04:30.753Z,8.68
2019-05-30T18:07:00.245Z,14.00
2019-05-30T18:09:29.643Z,8.68
2019-05-30T18:11:59.008Z,12.73
2019-05-30T18:14:33.751Z,10.88
2019-05-30T18:17:03.204Z,4.90
2019-05-30T18:19:32.594Z,8.10
2019-05-30T18:22:05.559Z,9.70
2019-05-30T18:27:29.988Z,7.08
2019-05-30T18:30:02.631Z,5.37
2019-05-30T18:32:34.138Z,8.40
2019-05-30T18:37:50.202Z,6.33
2019-05-30T18:43:20.392Z,11.73
2019-05-30T18:45:49.765Z,11.75
2019-05-30T18:48:25.344Z,14.65
2019-05-30T18:51:00.861Z,15.65
2019-05-30T18:53:42.342Z,12.75
2019-05-30T18:56:13.861Z,13.78
2019-05-30T18:58:44.389Z,19.70
2019-05-30T19:03:42.318Z,14.58
2019-05-30T19:06:11.755Z,12.40
2019-05-30T19:08:41.223Z,10.43
2019-05-30T19:11:27.066Z,14.55
2019-05-30T19:13:46.817Z,16.20
2019-05-30T19:16:16.213Z,16.80
2019-05-30T19:18:45.578Z,17.55
2019-05-30T19:21:14.959Z,17.65
2019-05-30T19:23:44.453Z,37.23
2019-05-30T19:26:13.922Z,30.63
2019-05-30T19:28:43.386Z,31.95
2019-05-30T19:31:12.865Z,15.55
2019-05-30T19:33:42.253Z,14.05
2019-05-30T19:36:11.679Z,14.30
2019-05-30T19:38:41.368Z,11.63
2019-05-30T19:41:10.866Z,15.23
2019-05-30T19:43:41.184Z,12.35
2019-05-30T19:46:13.167Z,18.00
2019-05-30T19:48:41.655Z,13.58
2019-05-30T19:51:11.157Z,9.88
2019-05-30T19:53:40.544Z,8.33
2019-05-30T19:56:09.901Z,8.35
2019-05-30T19:58:39.878Z,10.70
2019-05-30T20:01:09.502Z,8.53
2019-05-30T20:03:46.593Z,10.78
2019-05-30T20:06:09.964Z,12.28
2019-05-30T20:08:52.562Z,13.22
2019-05-30T20:11:10.397Z,12.37
2019-05-30T20:13:41.198Z,9.05
2019-05-30T20:16:11.046Z,11.60
2019-05-30T20:18:40.348Z,12.10
2019-05-30T20:21:09.732Z,13.50
2019-05-30T20:23:49.492Z,12.37
2019-05-30T20:26:10.082Z,12.75
2019-05-30T20:28:39.525Z,8.48
2019-05-30T20:31:08.964Z,8.83
2019-05-30T20:33:38.458Z,10.00
2019-05-30T20:36:08.201Z,11.35
2019-05-30T20:38:38.713Z,11.45
2019-05-30T20:41:08.617Z,10.03
2019-05-30T20:43:38.948Z,9.35
2019-05-30T20:48:41.058Z,7.80
2019-05-30T20:51:20.858Z,18.73
2019-05-30T20:53:54.987Z,13.20
2019-05-30T20:56:24.359Z,19.48
2019-05-30T20:58:54.755Z,24.77
2019-05-30T21:01:24.219Z,23.32
2019-05-30T21:03:53.664Z,18.15
2019-05-30T21:06:23.405Z,19.82
2019-05-30T21:08:52.785Z,22.98
2019-05-30T21:11:22.171Z,17.02
2019-05-30T21:13:54.517Z,31.05
2019-05-30T21:16:23.934Z,26.85
2019-05-30T21:18:53.313Z,33.58
2019-05-30T21:21:22.680Z,34.63
2019-05-30T21:23:52.267Z,33.10
2019-05-30T21:26:21.729Z,39.60
2019-05-30T21:28:51.086Z,42.90
2019-05-30T21:31:20.501Z,48.25
2019-05-30T21:33:49.959Z,37.75
2019-05-30T21:36:19.478Z,39.60
2019-05-30T21:38:48.902Z,38.13
2019-05-30T21:41:18.296Z,33.10
2019-05-30T21:43:48.918Z,23.05
2019-05-30T21:46:18.537Z,19.57
2019-05-30T21:48:49.045Z,19.50
2019-05-30T21:51:19.660Z,21.07
2019-05-30T21:53:49.732Z,17.02
2019-05-30T21:56:19.285Z,12.85
2019-05-30T21:58:48.675Z,18.27
2019-05-30T22:01:21.467Z,17.10
2019-05-30T22:03:51.553Z,13.32
2019-05-30T22:06:22.019Z,12.47
2019-05-30T22:08:51.659Z,11.20
2019-05-30T22:13:51.925Z,13.85
2019-05-30T22:16:22.541Z,13.35
2019-05-30T22:18:52.280Z,15.10
2019-05-30T22:21:22.926Z,13.48
2019-05-30T22:23:52.598Z,16.73
2019-05-30T22:26:23.205Z,16.20
2019-05-30T22:28:52.809Z,19.90
2019-05-30T22:31:22.241Z,12.70
2019-05-30T22:33:52.049Z,20.97
2019-05-30T22:36:22.672Z,16.70
2019-05-30T22:38:53.113Z,16.07
2019-05-30T22:41:23.797Z,14.45
2019-05-30T22:43:53.175Z,15.90
2019-05-30T22:46:23.605Z,14.83
2019-05-30T22:48:53.084Z,15.48
2019-05-30T22:53:53.259Z,16.10
2019-05-30T22:58:51.708Z,13.53
2019-05-30T23:01:21.218Z,17.40
2019-05-30T23:03:52.255Z,17.15
2019-05-30T23:06:21.685Z,15.45
2019-05-30T23:08:51.075Z,17.23
2019-05-30T23:11:20.430Z,20.20
2019-05-30T23:13:50.089Z,15.30
2019-05-30T23:16:19.565Z,18.50
2019-05-30T23:18:48.947Z,16.05
2019-05-30T23:21:18.327Z,14.63
2019-05-30T23:23:48.881Z,20.65
2019-05-30T23:26:18.363Z,19.80
2019-05-30T23:28:47.824Z,19.27
2019-05-30T23:31:17.177Z,16.87
2019-05-30T23:33:46.557Z,18.60
2019-05-30T23:36:15.960Z,23.80
2019-05-30T23:38:45.327Z,15.98
2019-05-30T23:41:34.142Z,19.42
2019-05-30T23:44:10.644Z,19.27
2019-05-30T23:46:34.518Z,26.37
2019-05-30T23:49:03.941Z,19.92
2019-05-30T23:51:33.332Z,20.45
2019-05-30T23:54:02.689Z,18.17
2019-05-30T23:56:32.075Z,17.20
2019-05-30T23:59:01.468Z,15.35
